Time;durP1;ratioP1;P1;durP2;ratioP2;P2;SDS_P1;SDS_P2;PMS_P1;PMS_P2;Temp;Humidity;BMP_temperature;BMP_pressure;BME280_temperature;BME280_humidity;BME280_pressure;Samples;Min_cycle;Max_cycle;Signal;HPM_P1;HPM_P2
2023/12/13 00:00:32;;;;;;;2.05;0.88;;;;;;;5.70;100.00;96040.03;5052931;28;20499;-59
2023/12/13 00:03:01;;;;;;;3.33;1.00;;;;;;;5.77;100.00;96039.81;5051475;28;20037;-59
2023/12/13 00:05:27;;;;;;;3.95;0.80;;;;;;;5.67;100.00;96037.00;5044982;28;20044;-58
2023/12/13 00:07:54;;;;;;;6.55;1.50;;;;;;;5.62;100.00;96037.78;5045731;28;20041;-59
2023/12/13 00:10:21;;;;;;;1.80;1.00;;;;;;;5.57;100.00;96043.13;5044198;28;20048;-58
2023/12/13 00:12:47;;;;;;;1.52;0.93;;;;;;;5.50;100.00;96035.25;5043289;28;20052;-59
2023/12/13 00:15:14;;;;;;;1.52;0.70;;;;;;;5.39;100.00;96028.16;5047038;28;20064;-58
2023/12/13 00:17:41;;;;;;;2.42;0.65;;;;;;;5.33;100.00;96030.78;5046754;28;20044;-59
2023/12/13 00:20:08;;;;;;;1.13;0.63;;;;;;;5.23;100.00;96027.97;5040861;28;20032;-58
2023/12/13 00:22:35;;;;;;;6.75;0.95;;;;;;;4.98;100.00;96025.81;5040302;28;20046;-59
2023/12/13 00:25:01;;;;;;;1.55;0.40;;;;;;;4.88;100.00;96019.25;5049711;28;20037;-59
2023/12/13 00:27:28;;;;;;;41.03;1.92;;;;;;;4.60;100.00;96002.25;5048033;28;20435;-59
2023/12/13 00:29:54;;;;;;;6.28;0.68;;;;;;;4.58;100.00;95992.84;5045246;28;20095;-59
2023/12/13 00:32:21;;;;;;;1.85;0.80;;;;;;;4.40;100.00;95974.13;5046630;28;20063;-58
2023/12/13 00:34:48;;;;;;;2.30;0.82;;;;;;;4.54;100.00;95995.22;5056293;28;20053;-59
2023/12/13 00:37:15;;;;;;;1.65;0.73;;;;;;;4.63;100.00;96008.97;5050693;28;20052;-59
2023/12/13 00:39:42;;;;;;;0.93;0.50;;;;;;;4.53;100.00;96007.78;5059162;28;20064;-58
2023/12/13 00:42:08;;;;;;;5.38;0.80;;;;;;;4.23;100.00;95994.75;5050178;28;20604;-58
2023/12/13 00:44:36;;;;;;;1.23;0.52;;;;;;;4.03;100.00;95978.13;5041648;28;20045;-59
2023/12/13 00:47:03;;;;;;;1.23;0.65;;;;;;;4.00;100.00;95981.31;5050291;28;20041;-59
2023/12/13 00:49:29;;;;;;;1.98;0.70;;;;;;;3.95;100.00;95994.63;5055330;28;20076;-59
2023/12/13 00:51:56;;;;;;;2.50;0.95;;;;;;;3.89;100.00;95988.38;5048858;28;20064;-58
2023/12/13 00:54:22;;;;;;;2.35;0.80;;;;;;;3.77;100.00;95988.44;5047901;28;20124;-58
2023/12/13 00:56:49;;;;;;;5.13;0.90;;;;;;;3.69;100.00;95986.16;5045735;28;20401;-59
2023/12/13 00:59:16;;;;;;;5.53;0.90;;;;;;;3.58;100.00;95973.66;5054240;28;20045;-59
2023/12/13 01:01:43;;;;;;;1.02;0.60;;;;;;;3.79;100.00;95995.44;5054910;28;20086;-60
2023/12/13 01:04:11;;;;;;;3.28;1.00;;;;;;;3.83;100.00;96005.41;5052725;28;20094;-59
2023/12/13 01:06:37;;;;;;;5.32;0.80;;;;;;;3.78;100.00;96010.66;5050974;28;20127;-59
2023/12/13 01:09:04;;;;;;;1.35;0.68;;;;;;;3.81;100.00;96009.38;5061294;28;20411;-59
2023/12/13 01:11:31;;;;;;;1.60;0.73;;;;;;;3.82;100.00;96011.81;5051057;28;20080;-59
2023/12/13 01:13:58;;;;;;;3.55;0.82;;;;;;;3.81;100.00;96010.19;5048443;28;20120;-59
2023/12/13 01:16:25;;;;;;;2.38;0.95;;;;;;;3.95;100.00;96018.72;5051062;28;20516;-59
2023/12/13 01:18:51;;;;;;;2.97;0.82;;;;;;;4.12;100.00;96013.34;5048937;28;20041;-59
2023/12/13 01:21:18;;;;;;;1.80;0.82;;;;;;;4.31;100.00;96012.31;5049985;28;20057;-59
2023/12/13 01:23:44;;;;;;;1.85;0.80;;;;;;;4.34;100.00;96009.09;5047103;28;20039;-59
2023/12/13 01:26:11;;;;;;;1.25;0.70;;;;;;;4.39;100.00;96009.22;5052671;28;20049;-60
2023/12/13 01:28:38;;;;;;;16.20;5.05;;;;;;;4.39;100.00;96012.69;5048285;28;20041;-60
2023/12/13 01:31:09;;;;;;;3.45;0.80;;;;;;;4.61;100.00;96016.47;5058238;28;20048;-58
2023/12/13 01:33:35;;;;;;;6.75;2.20;;;;;;;4.89;100.00;96017.38;5045782;28;20180;-59
2023/12/13 01:36:03;;;;;;;1.55;0.80;;;;;;;5.00;100.00;96013.75;5053262;28;20079;-59
2023/12/13 01:38:30;;;;;;;7.88;2.58;;;;;;;5.08;100.00;96002.59;5047457;28;20037;-59
2023/12/13 01:40:56;;;;;;;5.95;1.50;;;;;;;5.11;100.00;96005.81;5048119;28;20504;-59
2023/12/13 01:43:40;;;;;;;5.20;1.73;;;;;;;5.17;100.00;95999.47;5049979;28;20045;-58
2023/12/13 01:46:07;;;;;;;3.75;0.80;;;;;;;5.23;100.00;96003.03;5040065;28;20159;-59
2023/12/13 01:48:34;;;;;;;5.70;1.27;;;;;;;5.22;100.00;95999.50;5051894;28;20052;-59
2023/12/13 01:51:02;;;;;;;1.98;0.52;;;;;;;5.14;100.00;95981.19;5057257;28;20515;-58
2023/12/13 01:53:30;;;;;;;4.35;1.13;;;;;;;5.05;100.00;95978.16;5050746;28;20059;-59
2023/12/13 01:55:56;;;;;;;2.38;0.80;;;;;;;4.97;100.00;95978.59;5049217;28;20091;-58
2023/12/13 01:58:24;;;;;;;4.25;1.00;;;;;;;4.91;100.00;95985.75;5049201;28;20649;-60
2023/12/13 02:00:52;;;;;;;2.85;0.98;;;;;;;4.85;100.00;95992.09;5050443;28;20051;-58
2023/12/13 02:03:21;;;;;;;2.70;0.85;;;;;;;4.63;100.00;95974.94;5052121;28;20466;-59
2023/12/13 02:05:51;;;;;;;3.40;1.00;;;;;;;4.61;100.00;95970.91;5055315;28;20655;-60
2023/12/13 02:08:18;;;;;;;2.45;0.70;;;;;;;4.59;100.00;95989.09;5046683;28;20131;-58
2023/12/13 02:10:45;;;;;;;1.38;0.60;;;;;;;4.53;100.00;95982.84;5047052;28;20056;-59
2023/12/13 02:13:14;;;;;;;2.70;0.90;;;;;;;4.56;100.00;95990.41;5060811;28;20565;-59
2023/12/13 02:15:42;;;;;;;2.05;0.70;;;;;;;4.60;100.00;95990.72;5050301;28;20048;-58
2023/12/13 02:18:09;;;;;;;4.43;0.80;;;;;;;4.65;100.00;95991.59;5048270;28;20432;-59
2023/12/13 02:20:36;;;;;;;5.47;0.85;;;;;;;4.80;100.00;96003.59;5047674;28;20131;-58
2023/12/13 02:23:03;;;;;;;2.75;0.82;;;;;;;4.86;100.00;96009.84;5036593;28;20041;-59
2023/12/13 02:25:35;;;;;;;2.30;0.60;;;;;;;4.95;100.00;96011.00;5053102;28;20052;-58
2023/12/13 02:28:03;;;;;;;7.53;1.08;;;;;;;5.02;100.00;96019.66;5043026;28;20033;-59
2023/12/13 02:30:29;;;;;;;2.35;0.60;;;;;;;5.16;100.00;96006.69;5053787;28;22166;-59
2023/12/13 02:32:56;;;;;;;4.22;0.77;;;;;;;5.13;100.00;96009.06;5049057;28;20144;-59
2023/12/13 02:35:23;;;;;;;3.55;0.75;;;;;;;5.16;100.00;96004.00;5044117;28;20041;-59
2023/12/13 02:37:50;;;;;;;3.65;0.70;;;;;;;5.17;100.00;96005.63;5045788;28;20411;-60
2023/12/13 02:40:18;;;;;;;3.85;0.90;;;;;;;5.21;100.00;96004.06;5051942;28;20037;-60
2023/12/13 02:42:45;;;;;;;3.70;0.85;;;;;;;5.20;100.00;96001.66;5045875;28;20090;-59
2023/12/13 02:45:13;;;;;;;6.75;0.80;;;;;;;5.25;100.00;96003.56;5042660;28;20539;-58
2023/12/13 02:47:42;;;;;;;5.38;0.70;;;;;;;5.37;100.00;96014.97;5043969;28;20048;-59
2023/12/13 02:50:12;;;;;;;6.50;0.82;;;;;;;5.26;100.00;96008.69;5045806;28;20117;-60
2023/12/13 02:52:40;;;;;;;2.08;0.73;;;;;;;5.16;100.00;95995.16;5036063;28;20120;-59
2023/12/13 02:55:10;;;;;;;4.10;0.80;;;;;;;5.19;100.00;95984.72;5042158;28;20033;-59
2023/12/13 02:57:38;;;;;;;4.18;1.05;;;;;;;5.20;100.00;95982.88;5046292;28;20105;-59
2023/12/13 03:00:05;;;;;;;3.85;0.80;;;;;;;5.22;100.00;95978.03;5039216;28;20099;-59
2023/12/13 03:02:32;;;;;;;3.10;0.85;;;;;;;5.23;100.00;95981.56;5041796;28;20060;-58
2023/12/13 03:05:03;;;;;;;5.32;0.70;;;;;;;5.31;100.00;95986.47;5055383;28;20523;-58
2023/12/13 03:07:30;;;;;;;2.97;0.90;;;;;;;5.32;100.00;95969.31;5045380;28;20097;-59
2023/12/13 03:09:57;;;;;;;3.63;0.80;;;;;;;5.29;100.00;95970.63;5049438;28;20507;-59
2023/12/13 03:12:24;;;;;;;2.53;0.85;;;;;;;5.29;100.00;95964.44;5033512;28;20051;-58
2023/12/13 03:14:50;;;;;;;3.08;0.90;;;;;;;5.24;100.00;95961.69;5053341;28;20128;-59
2023/12/13 03:17:17;;;;;;;3.30;0.80;;;;;;;5.29;100.00;95965.25;5036902;28;20040;-59
2023/12/13 03:19:43;;;;;;;1.33;0.65;;;;;;;5.32;100.00;95956.69;5050016;28;20127;-59
2023/12/13 03:22:10;;;;;;;4.50;1.27;;;;;;;5.47;100.00;95963.28;5034878;28;20088;-58
2023/12/13 03:24:37;;;;;;;2.40;1.08;;;;;;;5.55;100.00;95959.31;5043770;28;20040;-59
2023/12/13 03:27:04;;;;;;;5.70;1.27;;;;;;;5.53;100.00;95951.50;5031817;28;20544;-58
2023/12/13 03:29:30;;;;;;;4.10;0.88;;;;;;;5.50;100.00;95938.59;5045733;28;20159;-58
2023/12/13 03:31:57;;;;;;;3.53;1.02;;;;;;;5.45;100.00;95933.16;5048431;28;20036;-59
2023/12/13 03:34:25;;;;;;;3.38;0.70;;;;;;;5.46;100.00;95932.91;5051820;28;20040;-59
2023/12/13 03:36:51;;;;;;;5.55;0.93;;;;;;;5.45;100.00;95919.75;5045522;28;20132;-59
2023/12/13 03:39:18;;;;;;;3.38;1.02;;;;;;;5.40;100.00;95925.91;5041656;28;20037;-59
2023/12/13 03:41:45;;;;;;;2.17;0.80;;;;;;;5.36;100.00;95923.97;5038912;28;20043;-59
2023/12/13 03:44:11;;;;;;;4.18;0.90;;;;;;;5.32;100.00;95924.50;5051356;28;20037;-59
2023/12/13 03:46:38;;;;;;;1.55;0.73;;;;;;;5.29;100.00;95922.31;5047213;28;20629;-58
2023/12/13 03:49:07;;;;;;;4.57;1.35;;;;;;;5.24;100.00;95924.94;5047735;28;20523;-58
2023/12/13 03:51:34;;;;;;;4.55;1.10;;;;;;;5.10;100.00;95919.16;5051339;28;20128;-58
2023/12/13 03:54:01;;;;;;;2.40;0.90;;;;;;;5.02;100.00;95915.03;5046079;28;20045;-59
2023/12/13 03:56:29;;;;;;;1.85;0.90;;;;;;;4.99;100.00;95901.34;5040661;28;20049;-58
2023/12/13 03:58:56;;;;;;;3.10;1.15;;;;;;;4.93;100.00;95898.59;5051967;28;20099;-60
2023/12/13 04:01:23;;;;;;;33.55;2.47;;;;;;;4.77;100.00;95889.59;5046776;28;20181;-59
2023/12/13 04:03:49;;;;;;;5.57;1.23;;;;;;;4.82;100.00;95900.38;5048226;28;20053;-59
2023/12/13 04:06:16;;;;;;;5.35;1.10;;;;;;;4.67;100.00;95901.00;5052475;28;20639;-59
2023/12/13 04:08:43;;;;;;;3.63;1.00;;;;;;;4.72;100.00;95891.41;5044374;28;20470;-59
2023/12/13 04:11:10;;;;;;;3.45;1.15;;;;;;;4.68;100.00;95894.56;5055886;28;20044;-59
2023/12/13 04:13:36;;;;;;;4.25;1.08;;;;;;;4.53;100.00;95884.47;5046723;28;20033;-59
2023/12/13 04:16:03;;;;;;;4.13;0.88;;;;;;;4.43;100.00;95871.75;5057103;28;20124;-58
2023/12/13 04:18:29;;;;;;;3.10;1.10;;;;;;;4.38;100.00;95870.88;5046476;28;20047;-58
2023/12/13 04:20:56;;;;;;;4.00;0.93;;;;;;;4.42;100.00;95888.91;5045865;28;20044;-59
2023/12/13 04:23:24;;;;;;;3.42;1.10;;;;;;;4.43;100.00;95895.88;5053314;28;20077;-58
2023/12/13 04:25:51;;;;;;;3.17;1.20;;;;;;;4.46;100.00;95907.19;5053775;28;20044;-59
2023/12/13 04:28:18;;;;;;;2.95;1.38;;;;;;;4.47;100.00;95912.28;5046176;28;20045;-59
2023/12/13 04:30:45;;;;;;;4.18;1.13;;;;;;;4.38;100.00;95909.22;5057575;28;20048;-59
2023/12/13 04:33:11;;;;;;;6.25;1.55;;;;;;;4.44;100.00;95904.75;5057698;28;20041;-59
2023/12/13 04:35:38;;;;;;;6.10;1.52;;;;;;;4.40;100.00;95899.09;5048894;28;20044;-60
2023/12/13 04:38:05;;;;;;;3.55;1.70;;;;;;;4.48;100.00;95905.03;5047668;28;20124;-59
2023/12/13 04:40:32;;;;;;;5.38;1.88;;;;;;;4.49;100.00;95901.34;5042948;28;20160;-59
2023/12/13 04:43:00;;;;;;;7.43;2.20;;;;;;;4.48;100.00;95894.31;5042439;28;20605;-59
2023/12/13 04:45:26;;;;;;;5.20;2.17;;;;;;;4.47;100.00;95887.34;5043284;28;20071;-59
2023/12/13 04:47:53;;;;;;;5.30;2.38;;;;;;;4.47;100.00;95890.84;5044137;28;20604;-59
2023/12/13 04:50:19;;;;;;;7.40;2.13;;;;;;;4.52;100.00;95890.09;5041610;28;20041;-60
2023/12/13 04:52:46;;;;;;;4.25;1.80;;;;;;;4.55;100.00;95893.09;5051897;28;20059;-59
2023/12/13 04:55:13;;;;;;;8.57;2.10;;;;;;;4.56;100.00;95891.22;5052961;28;20045;-58
2023/12/13 04:57:39;;;;;;;3.40;1.70;;;;;;;4.52;100.00;95892.78;5046344;28;20646;-58
2023/12/13 05:00:07;;;;;;;9.57;2.22;;;;;;;4.51;100.00;95894.66;5043909;28;20037;-59
2023/12/13 05:02:34;;;;;;;4.82;2.25;;;;;;;4.42;100.00;95885.41;5037826;28;20536;-58
2023/12/13 05:05:01;;;;;;;6.72;2.25;;;;;;;4.34;100.00;95891.19;5040969;28;20053;-59
2023/12/13 05:07:28;;;;;;;5.22;2.55;;;;;;;4.29;100.00;95876.72;5050670;28;20064;-59
2023/12/13 05:09:55;;;;;;;7.70;2.47;;;;;;;4.42;100.00;95885.41;5046513;28;20055;-59
2023/12/13 05:12:22;;;;;;;6.35;1.65;;;;;;;4.30;100.00;95885.53;5047329;28;20611;-59
2023/12/13 05:14:48;;;;;;;4.05;1.90;;;;;;;4.22;100.00;95891.31;5052264;28;20036;-58
2023/12/13 05:17:15;;;;;;;3.80;1.90;;;;;;;4.18;100.00;95882.97;5034822;28;20543;-59
2023/12/13 05:19:42;;;;;;;4.63;1.98;;;;;;;4.14;100.00;95881.84;5045779;28;20647;-59
2023/12/13 05:22:08;;;;;;;5.63;1.90;;;;;;;4.11;100.00;95875.13;5040271;28;20040;-58
2023/12/13 05:24:35;;;;;;;5.53;1.50;;;;;;;4.14;100.00;95871.97;5049734;28;20078;-59
2023/12/13 05:27:02;;;;;;;5.00;1.73;;;;;;;4.20;100.00;95864.78;5042763;28;20107;-58
2023/12/13 05:29:28;;;;;;;5.43;1.60;;;;;;;4.29;100.00;95874.03;5048903;28;20044;-59
2023/12/13 05:31:55;;;;;;;3.90;1.13;;;;;;;4.45;100.00;95870.72;5033752;28;20055;-59
2023/12/13 05:34:23;;;;;;;6.25;1.23;;;;;;;4.52;100.00;95868.66;5043901;28;20051;-60
2023/12/13 05:36:50;;;;;;;3.30;1.25;;;;;;;4.66;100.00;95869.06;5052149;28;20102;-60
2023/12/13 05:39:16;;;;;;;1.83;1.00;;;;;;;4.72;100.00;95869.94;5048705;28;20045;-59
2023/12/13 05:41:43;;;;;;;2.78;1.00;;;;;;;4.82;100.00;95875.41;5039722;28;20037;-59
2023/12/13 05:44:09;;;;;;;4.70;1.20;;;;;;;4.90;100.00;95860.75;5056501;28;20496;-60
2023/12/13 05:46:36;;;;;;;3.80;1.20;;;;;;;4.93;100.00;95850.31;5054749;28;20667;-59
2023/12/13 05:49:05;;;;;;;6.80;1.10;;;;;;;4.99;100.00;95845.81;5047396;28;20051;-58
2023/12/13 05:51:33;;;;;;;4.95;1.05;;;;;;;4.89;100.00;95832.28;5043590;28;20055;-59
2023/12/13 05:54:00;;;;;;;3.17;0.98;;;;;;;4.84;100.00;95818.84;5045947;28;20481;-60
2023/12/13 05:56:27;;;;;;;4.00;1.10;;;;;;;4.90;100.00;95825.91;5045493;28;20052;-60
2023/12/13 05:58:54;;;;;;;3.47;1.30;;;;;;;4.97;100.00;95826.47;5053017;28;20145;-59
2023/12/13 06:01:22;;;;;;;3.53;1.40;;;;;;;5.04;100.00;95810.16;5046519;28;20681;-59
2023/12/13 06:03:49;;;;;;;3.03;1.45;;;;;;;5.08;100.00;95798.69;5041491;28;20516;-58
2023/12/13 06:06:16;;;;;;;3.95;1.48;;;;;;;5.14;100.00;95782.63;5050733;28;20037;-59
2023/12/13 06:08:42;;;;;;;5.07;1.08;;;;;;;5.02;100.00;95769.38;5050306;28;20521;-59
2023/12/13 06:11:09;;;;;;;3.60;1.23;;;;;;;4.97;100.00;95770.16;5042825;28;20045;-59
2023/12/13 06:13:36;;;;;;;3.22;1.30;;;;;;;5.03;100.00;95771.81;5043153;28;20550;-60
2023/12/13 06:16:02;;;;;;;2.30;1.10;;;;;;;4.97;100.00;95762.09;5040350;28;20048;-59
2023/12/13 06:18:29;;;;;;;6.53;1.30;;;;;;;4.94;100.00;95759.94;5047656;28;20045;-59
2023/12/13 06:20:56;;;;;;;2.30;0.85;;;;;;;4.87;100.00;95764.72;5049583;28;20098;-59
2023/12/13 06:23:23;;;;;;;4.57;1.33;;;;;;;4.81;100.00;95770.03;5048853;28;20044;-60
2023/12/13 06:25:50;;;;;;;3.80;1.13;;;;;;;4.77;100.00;95782.31;5045020;28;20043;-59
2023/12/13 06:28:16;;;;;;;2.72;1.10;;;;;;;4.75;100.00;95797.06;5036385;28;20048;-60
2023/12/13 06:30:43;;;;;;;1.25;0.85;;;;;;;4.74;100.00;95804.28;5046889;28;20048;-60
2023/12/13 06:33:09;;;;;;;2.25;0.80;;;;;;;4.79;100.00;95801.63;5048101;28;20543;-59
2023/12/13 06:35:36;;;;;;;2.85;0.95;;;;;;;4.79;100.00;95796.28;5039526;28;20040;-59
2023/12/13 06:38:03;;;;;;;3.20;1.33;;;;;;;4.79;100.00;95808.91;5048807;28;20531;-60
2023/12/13 06:40:29;;;;;;;2.88;1.05;;;;;;;4.79;100.00;95801.63;5045526;28;20036;-59
2023/12/13 06:42:56;;;;;;;5.28;1.20;;;;;;;4.80;100.00;95811.28;5037316;28;20045;-59
2023/12/13 06:45:22;;;;;;;1.67;0.98;;;;;;;4.78;100.00;95810.75;5050951;28;20036;-59
2023/12/13 06:47:51;;;;;;;3.42;1.05;;;;;;;4.79;100.00;95804.31;5050190;28;20048;-59
2023/12/13 06:50:19;;;;;;;3.35;1.25;;;;;;;4.87;100.00;95808.41;5025812;28;20391;-58
2023/12/13 06:52:47;;;;;;;4.18;1.27;;;;;;;4.88;100.00;95810.06;5049034;28;20056;-59
2023/12/13 06:55:14;;;;;;;2.72;1.30;;;;;;;4.85;100.00;95805.19;5046772;28;20068;-59
2023/12/13 06:57:41;;;;;;;3.47;1.40;;;;;;;4.87;100.00;95815.66;5040961;28;20049;-60
2023/12/13 07:00:08;;;;;;;3.00;1.27;;;;;;;4.86;100.00;95814.84;5049165;28;20127;-59
2023/12/13 07:02:36;;;;;;;4.47;1.50;;;;;;;4.86;100.00;95817.53;5034362;28;20101;-59
2023/12/13 07:05:03;;;;;;;3.75;1.30;;;;;;;4.92;100.00;95819.22;5049925;28;20047;-59
2023/12/13 07:07:30;;;;;;;5.47;1.45;;;;;;;4.89;100.00;95817.03;5047975;28;20040;-60
2023/12/13 07:09:57;;;;;;;3.25;1.35;;;;;;;4.87;100.00;95818.34;5045554;28;20049;-60
2023/12/13 07:12:27;;;;;;;4.63;1.70;;;;;;;4.81;100.00;95809.44;5047596;28;20040;-60
2023/12/13 07:14:55;;;;;;;4.60;1.25;;;;;;;4.79;100.00;95812.38;5046224;28;20048;-60
2023/12/13 07:17:22;;;;;;;5.97;1.70;;;;;;;4.79;100.00;95808.91;5045372;28;20049;-59
2023/12/13 07:19:50;;;;;;;3.95;1.58;;;;;;;4.77;100.00;95801.09;5049895;28;20048;-60
2023/12/13 07:22:18;;;;;;;3.88;1.88;;;;;;;4.79;100.00;95812.38;5045985;28;20037;-60
2023/12/13 07:24:46;;;;;;;3.88;1.35;;;;;;;4.85;100.00;95823.13;5044095;28;20069;-60
2023/12/13 07:27:13;;;;;;;4.72;1.92;;;;;;;4.84;100.00;95816.16;5042979;28;20041;-59
2023/12/13 07:29:42;;;;;;;3.30;1.60;;;;;;;4.88;100.00;95817.28;5048084;28;20037;-60
2023/12/13 07:32:09;;;;;;;4.53;2.25;;;;;;;4.95;100.00;95821.38;5043208;28;20107;-59
2023/12/13 07:34:36;;;;;;;4.80;1.73;;;;;;;4.98;100.00;95809.34;5044975;28;20645;-60
2023/12/13 07:37:04;;;;;;;3.13;1.63;;;;;;;5.02;100.00;95805.06;5045691;28;20065;-60
2023/12/13 07:39:35;;;;;;;9.07;2.50;;;;;;;5.02;100.00;95807.75;5052977;28;20556;-59
2023/12/13 07:42:03;;;;;;;4.45;1.77;;;;;;;5.10;100.00;95814.53;5043580;28;20047;-60
2023/12/13 07:44:32;;;;;;;3.97;2.03;;;;;;;5.08;100.00;95824.69;5049823;28;20033;-60
2023/12/13 07:47:00;;;;;;;7.00;1.85;;;;;;;5.06;100.00;95816.09;5041818;28;20041;-59
2023/12/13 07:49:27;;;;;;;7.38;1.83;;;;;;;5.06;100.00;95811.53;5047873;28;20036;-59
2023/12/13 07:51:55;;;;;;;3.45;1.48;;;;;;;5.15;100.00;95813.75;5048526;28;20040;-60
2023/12/13 07:54:22;;;;;;;3.25;1.33;;;;;;;5.19;100.00;95804.94;5048608;28;21282;-59
2023/12/13 07:56:53;;;;;;;4.57;1.35;;;;;;;5.18;100.00;95806.03;5045854;28;20037;-60
2023/12/13 07:59:20;;;;;;;9.80;5.70;;;;;;;5.18;100.00;95805.19;5043993;28;20041;-59
2023/12/13 08:01:47;;;;;;;3.42;1.60;;;;;;;5.13;100.00;95789.06;5042229;28;20113;-59
2023/12/13 08:04:15;;;;;;;4.95;2.47;;;;;;;5.18;100.00;95787.22;5044466;28;20060;-59
2023/12/13 08:06:41;;;;;;;4.47;2.08;;;;;;;5.24;100.00;95792.63;5039556;28;20056;-59
2023/12/13 08:09:11;;;;;;;10.68;6.43;;;;;;;5.23;100.00;95786.44;5046828;28;20045;-59
2023/12/13 08:11:38;;;;;;;13.32;7.35;;;;;;;5.29;100.00;95784.63;5046607;28;20585;-59
2023/12/13 08:14:05;;;;;;;21.70;12.90;;;;;;;5.36;100.00;95809.38;5042536;28;20041;-59
2023/12/13 08:16:32;;;;;;;8.52;3.45;;;;;;;5.40;100.00;95817.72;5041891;28;20056;-59
2023/12/13 08:18:59;;;;;;;7.45;4.72;;;;;;;5.40;100.00;95813.16;5041258;28;20045;-59
2023/12/13 08:21:26;;;;;;;10.63;5.68;;;;;;;5.35;100.00;95807.75;5046322;28;20134;-60
2023/12/13 08:23:53;;;;;;;8.25;4.43;;;;;;;5.32;100.00;95792.97;5044224;28;20040;-59
2023/12/13 08:26:20;;;;;;;3.85;1.60;;;;;;;5.39;100.00;95779.34;5045952;28;20095;-59
2023/12/13 08:28:46;;;;;;;2.92;1.27;;;;;;;5.42;100.00;95748.47;5044258;28;20045;-60
2023/12/13 08:31:13;;;;;;;4.30;1.50;;;;;;;5.47;100.00;95735.09;5035557;28;20106;-59
2023/12/13 08:33:50;;;;;;;3.95;1.40;;;;;;;5.57;100.00;95719.03;5043126;28;20047;-59
2023/12/13 08:36:17;;;;;;;6.68;1.50;;;;;;;5.57;100.00;95704.81;5040269;28;20041;-60
2023/12/13 08:38:45;;;;;;;4.47;1.20;;;;;;;5.68;100.00;95695.72;5042910;28;20036;-59
2023/12/13 08:41:14;;;;;;;5.32;1.20;;;;;;;5.70;100.00;95693.59;5043128;28;20520;-59
2023/12/13 08:43:41;;;;;;;2.70;1.15;;;;;;;5.73;100.00;95684.19;5049056;28;20453;-60
2023/12/13 08:46:08;;;;;;;4.65;1.90;;;;;;;5.67;100.00;95685.22;5044143;28;20045;-59
2023/12/13 08:48:35;;;;;;;3.50;1.20;;;;;;;5.72;100.00;95691.44;5043319;28;20049;-60
2023/12/13 08:51:02;;;;;;;3.92;1.30;;;;;;;5.82;100.00;95698.72;5050014;28;20045;-59
2023/12/13 08:53:29;;;;;;;3.35;1.50;;;;;;;5.91;100.00;95692.84;5040537;28;20642;-59
2023/12/13 08:55:56;;;;;;;1.73;1.00;;;;;;;5.99;100.00;95695.03;5043912;28;20036;-60
2023/12/13 08:58:23;;;;;;;40.83;15.77;;;;;;;6.10;100.00;95707.47;5049972;28;20045;-59
2023/12/13 09:00:49;;;;;;;98.38;36.70;;;;;;;6.15;100.00;95705.88;5048615;28;20048;-60
2023/12/13 09:03:19;;;;;;;14.15;4.88;;;;;;;6.23;100.00;95713.41;5041212;28;20108;-60
2023/12/13 09:05:46;;;;;;;17.63;8.50;;;;;;;6.27;100.00;95722.56;5052291;28;20439;-59
2023/12/13 09:08:13;;;;;;;16.67;10.80;;;;;;;6.31;100.00;95720.97;5045580;28;20072;-59
2023/12/13 09:10:39;;;;;;;6.55;3.92;;;;;;;6.37;100.00;95714.50;5052905;28;20127;-59
2023/12/13 09:13:06;;;;;;;2.17;1.05;;;;;;;6.48;100.00;95718.03;5046616;28;20055;-60
2023/12/13 09:15:32;;;;;;;4.47;1.58;;;;;;;6.59;100.00;95705.41;5047860;28;20139;-60
2023/12/13 09:17:59;;;;;;;3.35;1.00;;;;;;;6.71;100.00;95701.66;5049339;28;20056;-60
2023/12/13 09:20:26;;;;;;;1.90;0.82;;;;;;;6.81;100.00;95695.47;5045478;28;20106;-60
2023/12/13 09:22:52;;;;;;;3.08;0.60;;;;;;;6.84;100.00;95678.78;5046655;28;20052;-60
2023/12/13 09:25:19;;;;;;;1.90;0.85;;;;;;;6.80;100.00;95683.06;5046511;28;20048;-60
2023/12/13 09:27:49;;;;;;;1.63;0.70;;;;;;;6.85;100.00;95670.44;5055861;28;20052;-59
2023/12/13 09:30:15;;;;;;;1.85;0.77;;;;;;;6.88;100.00;95674.47;5049042;28;20415;-59
2023/12/13 09:32:42;;;;;;;2.28;0.77;;;;;;;6.85;100.00;95675.81;5033092;28;20079;-58
2023/12/13 09:35:13;;;;;;;2.80;0.80;;;;;;;6.87;100.00;95676.38;5045877;28;20136;-59
2023/12/13 09:37:41;;;;;;;3.22;0.90;;;;;;;6.90;100.00;95686.56;5056300;28;20090;-58
2023/12/13 09:40:16;;;;;;;2.13;0.85;;;;;;;6.82;100.00;95692.50;5049054;28;20045;-59
2023/12/13 09:42:47;;;;;;;2.88;1.00;;;;;;;6.81;100.00;95690.88;5045823;28;20044;-58
2023/12/13 09:45:22;;;;;;;3.60;1.15;;;;;;;6.75;100.00;95684.69;5050830;28;20037;-59
2023/12/13 09:47:52;;;;;;;3.75;1.70;;;;;;;6.74;100.00;95690.34;5055992;28;20047;-59
2023/12/13 09:50:22;;;;;;;2.25;1.20;;;;;;;6.73;100.00;95694.09;5045537;28;20037;-60
2023/12/13 09:52:50;;;;;;;4.38;1.45;;;;;;;6.74;100.00;95701.09;5060320;28;20060;-59
2023/12/13 09:55:17;;;;;;;5.35;1.50;;;;;;;6.75;100.00;95708.13;5047854;28;20293;-60
2023/12/13 09:57:44;;;;;;;2.83;1.20;;;;;;;6.79;100.00;95719.13;5041577;28;20048;-58
2023/12/13 10:00:14;;;;;;;4.78;1.40;;;;;;;6.75;100.00;95710.81;5045483;28;20052;-59
2023/12/13 10:02:40;;;;;;;2.47;1.10;;;;;;;6.70;100.00;95710.78;5054334;28;20554;-60
2023/12/13 10:05:09;;;;;;;2.95;1.35;;;;;;;6.70;100.00;95718.84;5045183;28;20047;-60
2023/12/13 10:07:38;;;;;;;3.38;1.30;;;;;;;6.68;100.00;95712.94;5049592;28;20156;-60
2023/12/13 10:10:05;;;;;;;3.53;1.60;;;;;;;6.71;100.00;95710.50;5045804;28;20133;-59
2023/12/13 10:12:32;;;;;;;3.90;1.38;;;;;;;6.67;100.00;95697.88;5049732;28;20673;-59
2023/12/13 10:15:11;;;;;;;3.88;1.38;;;;;;;6.61;100.00;95694.38;5038691;28;20129;-59
2023/12/13 10:17:39;;;;;;;4.38;1.10;;;;;;;6.64;100.00;95708.09;5045986;28;20045;-60
2023/12/13 10:20:10;;;;;;;2.13;1.10;;;;;;;6.62;100.00;95701.38;5043823;28;20633;-60
2023/12/13 10:22:38;;;;;;;3.38;1.02;;;;;;;6.80;100.00;95708.09;5046110;28;20049;-59
2023/12/13 10:25:06;;;;;;;2.72;1.10;;;;;;;6.98;100.00;95703.25;5043099;28;20040;-60
2023/12/13 10:27:32;;;;;;;4.45;1.27;;;;;;;7.13;100.00;95702.44;5047917;28;20053;-60
2023/12/13 10:30:01;;;;;;;5.65;2.90;;;;;;;7.19;100.00;95689.78;5048829;28;20045;-60
2023/12/13 10:32:28;;;;;;;37.03;18.42;;;;;;;7.18;100.00;95678.19;5046404;28;20130;-58
2023/12/13 10:34:54;;;;;;;41.60;20.20;;;;;;;7.14;100.00;95671.75;5041704;28;20537;-60
2023/12/13 10:37:24;;;;;;;5.70;1.60;;;;;;;7.36;100.00;95673.31;5046147;28;20064;-59
2023/12/13 10:39:53;;;;;;;3.05;1.25;;;;;;;7.49;100.00;95674.63;5045507;28;20045;-60
2023/12/13 10:42:24;;;;;;;1.95;0.95;;;;;;;7.65;100.00;95670.81;5051998;28;20444;-59
2023/12/13 10:44:51;;;;;;;1.80;0.93;;;;;;;7.75;100.00;95664.59;5051741;28;20462;-59
2023/12/13 10:47:25;;;;;;;1.90;0.80;;;;;;;7.74;100.00;95662.16;5041667;28;20040;-59
2023/12/13 10:49:55;;;;;;;2.53;0.82;;;;;;;7.87;100.00;95656.19;5043428;28;20080;-59
2023/12/13 10:52:25;;;;;;;2.58;1.00;;;;;;;7.96;100.00;95655.59;5042406;28;20068;-59
2023/12/13 10:54:52;;;;;;;2.30;1.00;;;;;;;7.99;100.00;95655.06;5045746;28;20511;-59
2023/12/13 10:57:18;;;;;;;2.90;1.20;;;;;;;8.01;100.00;95655.56;5048383;28;20049;-59
2023/12/13 10:59:46;;;;;;;2.80;0.90;;;;;;;7.85;100.00;95660.22;5046619;28;20136;-59
2023/12/13 11:02:18;;;;;;;3.00;0.80;;;;;;;7.91;100.00;95659.94;5042722;28;20041;-60
2023/12/13 11:04:45;;;;;;;2.25;0.70;;;;;;;7.86;100.00;95657.28;5049605;28;20516;-59
2023/12/13 11:07:12;;;;;;;1.30;0.55;;;;;;;7.76;100.00;95651.91;5046658;28;20051;-59
2023/12/13 11:09:53;;;;;;;2.90;0.90;;;;;;;7.87;100.00;95649.97;5049954;28;20070;-59
2023/12/13 11:12:20;;;;;;;2.35;0.70;;;;;;;8.01;100.00;95648.28;5048629;28;20036;-58
2023/12/13 11:14:51;;;;;;;2.10;0.70;;;;;;;7.99;100.00;95652.34;5046513;28;20068;-59
2023/12/13 11:17:19;;;;;;;2.17;0.88;;;;;;;7.99;100.00;95645.06;5042353;28;20065;-59
2023/12/13 11:19:47;;;;;;;4.03;1.20;;;;;;;8.02;100.00;95641.00;5054052;28;20518;-59
2023/12/13 11:22:14;;;;;;;2.28;0.70;;;;;;;8.12;100.00;95649.03;5045142;28;20052;-59
2023/12/13 11:24:41;;;;;;;16.95;9.48;;;;;;;8.17;100.00;95648.19;5045232;28;20616;-60
2023/12/13 11:27:13;;;;;;;4.72;2.58;;;;;;;8.24;100.00;95643.31;5048368;28;20127;-61
2023/12/13 11:29:45;;;;;;;8.25;3.42;;;;;;;8.39;100.00;95639.69;5025617;28;20051;-59
2023/12/13 11:32:14;;;;;;;5.70;1.98;;;;;;;8.58;100.00;95636.34;5046774;28;20117;-59